createdAt,value
2023-02-09T00:01:18.587Z,48.37
2023-02-09T00:03:46.263Z,47.37
2023-02-09T00:06:14.439Z,44.61
2023-02-09T00:08:41.721Z,43.67
2023-02-09T00:11:10.524Z,45.23
2023-02-09T00:13:37.855Z,45.06
2023-02-09T00:16:05.253Z,46.79
2023-02-09T00:18:33.336Z,48.44
2023-02-09T00:21:00.617Z,52.33
2023-02-09T00:23:29.063Z,53.27
2023-02-09T00:26:00.056Z,54.81
2023-02-09T00:28:27.602Z,60.93
2023-02-09T00:30:54.877Z,60.17
2023-02-09T00:33:22.357Z,58.54
2023-02-09T00:35:49.662Z,53.40
2023-02-09T00:38:16.946Z,49.74
2023-02-09T00:40:44.778Z,47.27
2023-02-09T00:43:12.240Z,46.62
2023-02-09T00:45:39.480Z,46.78
2023-02-09T00:48:06.940Z,45.31
2023-02-09T00:50:34.129Z,44.61
2023-02-09T00:53:01.305Z,45.39
2023-02-09T00:55:28.720Z,46.33
2023-02-09T00:57:55.867Z,49.55
2023-02-09T01:00:23.120Z,52.95
2023-02-09T01:02:50.536Z,49.07
2023-02-09T01:05:17.749Z,47.10
2023-02-09T01:07:44.919Z,45.74
2023-02-09T01:10:12.332Z,45.13
2023-02-09T01:12:40.955Z,46.12
2023-02-09T01:15:08.873Z,56.25
2023-02-09T01:17:36.388Z,55.75
2023-02-09T01:20:04.677Z,55.20
2023-02-09T01:22:31.827Z,51.40
2023-02-09T01:24:59.277Z,47.87
2023-02-09T01:27:26.426Z,47.61
2023-02-09T01:29:53.535Z,51.08
2023-02-09T01:32:20.985Z,54.99
2023-02-09T01:34:50.676Z,54.03
2023-02-09T01:37:18.398Z,55.35
2023-02-09T01:39:46.460Z,56.69
2023-02-09T01:42:15.355Z,58.11
2023-02-09T01:44:42.662Z,57.19
2023-02-09T01:47:13.924Z,52.58
2023-02-09T01:49:41.243Z,49.13
2023-02-09T01:52:15.604Z,46.38
2023-02-09T01:54:43.005Z,45.59
2023-02-09T01:57:11.465Z,52.50
2023-02-09T01:59:39.137Z,58.79
2023-02-09T02:02:07.100Z,56.66
2023-02-09T02:04:34.873Z,55.97
2023-02-09T02:07:34.613Z,55.29
2023-02-09T02:10:02.989Z,57.08
2023-02-09T02:12:30.214Z,61.26
2023-02-09T02:14:57.636Z,62.25
2023-02-09T02:17:36.877Z,64.44
2023-02-09T02:20:19.464Z,64.27
2023-02-09T02:22:49.638Z,65.60
2023-02-09T02:25:35.632Z,62.42
2023-02-09T02:28:21.854Z,63.50
2023-02-09T02:30:52.123Z,63.83
2023-02-09T02:33:31.676Z,63.71
2023-02-09T02:36:19.841Z,56.71
2023-02-09T02:39:01.406Z,57.58
2023-02-09T02:41:52.963Z,58.66
2023-02-09T02:44:20.178Z,54.67
2023-02-09T02:46:51.447Z,55.64
2023-02-09T02:49:21.335Z,54.19
2023-02-09T02:51:49.352Z,53.10
2023-02-09T02:54:17.693Z,51.24
2023-02-09T02:56:50.075Z,49.06
2023-02-09T02:59:18.816Z,48.41
2023-02-09T03:01:47.885Z,47.66
2023-02-09T03:04:15.180Z,52.87
2023-02-09T03:06:43.011Z,52.54
2023-02-09T03:09:10.188Z,53.79
2023-02-09T03:11:41.939Z,49.79
2023-02-09T03:14:09.400Z,48.81
2023-02-09T03:16:39.527Z,48.15
2023-02-09T03:19:25.341Z,43.77
2023-02-09T03:22:01.793Z,42.17
2023-02-09T03:24:37.237Z,42.43
2023-02-09T03:27:22.140Z,43.01
2023-02-09T03:29:50.138Z,43.59
2023-02-09T03:32:17.686Z,44.16
2023-02-09T03:34:45.301Z,45.15
2023-02-09T03:37:12.560Z,48.02
2023-02-09T03:39:40.121Z,53.10
2023-02-09T03:42:07.346Z,55.15
2023-02-09T03:44:34.568Z,57.68
2023-02-09T03:47:03.835Z,61.54
2023-02-09T03:49:33.513Z,62.64
2023-02-09T03:52:01.301Z,61.76
2023-02-09T03:54:32.303Z,62.26
2023-02-09T03:56:59.996Z,59.07
2023-02-09T03:59:27.703Z,56.98
2023-02-09T04:01:56.143Z,56.85
2023-02-09T04:04:23.936Z,59.72
2023-02-09T04:06:51.152Z,60.86
2023-02-09T04:09:18.358Z,57.31
2023-02-09T04:11:47.147Z,53.03
2023-02-09T04:14:14.322Z,52.44
2023-02-09T04:16:43.889Z,54.10
2023-02-09T04:19:11.492Z,57.75
2023-02-09T04:21:38.957Z,58.37
2023-02-09T04:24:06.450Z,55.73
2023-02-09T04:26:34.137Z,54.15
2023-02-09T04:29:01.281Z,54.90
2023-02-09T04:31:28.609Z,54.89
2023-02-09T04:33:56.099Z,52.45
2023-02-09T04:36:23.496Z,48.65
2023-02-09T04:41:35.800Z,42.45
2023-02-09T04:44:02.969Z,40.17
2023-02-09T04:46:30.116Z,40.86
2023-02-09T04:48:57.599Z,43.70
2023-02-09T04:51:24.760Z,51.78
2023-02-09T04:53:52.394Z,55.63
2023-02-09T04:56:19.858Z,58.22
2023-02-09T04:59:07.247Z,57.92
2023-02-09T05:01:34.732Z,58.71
2023-02-09T05:04:01.946Z,58.43
2023-02-09T05:06:29.066Z,55.32
2023-02-09T05:08:56.516Z,57.21
2023-02-09T05:11:25.528Z,59.20
2023-02-09T05:13:52.820Z,62.21
2023-02-09T05:16:20.402Z,66.13
2023-02-09T05:18:47.648Z,67.16
2023-02-09T05:21:14.846Z,67.02
2023-02-09T05:23:42.307Z,60.73
2023-02-09T05:26:09.647Z,55.54
2023-02-09T05:28:37.040Z,53.73
2023-02-09T05:31:04.881Z,54.25
2023-02-09T05:33:32.304Z,53.22
2023-02-09T05:35:59.578Z,51.23
2023-02-09T05:38:27.137Z,52.71
2023-02-09T05:40:54.327Z,55.83
2023-02-09T05:43:21.487Z,60.78
2023-02-09T05:45:49.083Z,61.56
2023-02-09T05:48:16.257Z,63.89
2023-02-09T05:50:43.633Z,63.10
2023-02-09T05:53:11.239Z,58.35
2023-02-09T05:55:38.423Z,53.11
2023-02-09T05:58:07.984Z,50.33
2023-02-09T06:00:35.477Z,51.22
2023-02-09T06:03:02.889Z,50.47
2023-02-09T06:05:30.218Z,49.23
2023-02-09T06:07:58.053Z,49.46
2023-02-09T06:10:25.489Z,49.10
2023-02-09T06:12:52.691Z,51.52
2023-02-09T06:15:19.861Z,53.24
2023-02-09T06:17:47.335Z,55.13
2023-02-09T06:20:14.530Z,58.76
2023-02-09T06:22:41.676Z,58.90
2023-02-09T06:25:09.321Z,59.23
2023-02-09T06:27:36.817Z,59.00
2023-02-09T06:30:04.597Z,56.19
2023-02-09T06:32:32.286Z,59.26
2023-02-09T06:34:59.482Z,56.87
2023-02-09T06:37:26.711Z,55.04
2023-02-09T06:39:54.183Z,53.59
2023-02-09T06:42:21.336Z,55.20
2023-02-09T06:44:48.533Z,53.01
2023-02-09T06:47:16.188Z,51.65
2023-02-09T06:49:43.339Z,52.69
2023-02-09T06:52:10.647Z,50.39
2023-02-09T06:54:38.272Z,50.10
2023-02-09T06:57:05.658Z,48.27
2023-02-09T06:59:33.052Z,50.98
2023-02-09T07:02:00.829Z,49.23
2023-02-09T07:04:28.089Z,46.29
2023-02-09T07:06:55.264Z,44.91
2023-02-09T07:09:22.690Z,44.04
2023-02-09T07:11:50.004Z,46.77
2023-02-09T07:14:17.544Z,47.34
2023-02-09T07:16:45.285Z,46.88
2023-02-09T07:19:13.020Z,47.00
2023-02-09T07:21:40.419Z,46.77
2023-02-09T07:24:08.122Z,49.13
2023-02-09T07:26:35.518Z,48.08
2023-02-09T07:29:02.917Z,49.76
2023-02-09T07:31:30.771Z,46.11
2023-02-09T07:33:58.545Z,47.12
2023-02-09T07:36:28.049Z,49.27
2023-02-09T07:38:56.396Z,49.66
2023-02-09T07:41:25.280Z,51.27
2023-02-09T07:43:53.083Z,47.24
2023-02-09T07:46:22.062Z,47.64
2023-02-09T07:48:49.800Z,46.44
2023-02-09T07:51:25.293Z,46.65
2023-02-09T07:53:53.439Z,46.15
2023-02-09T07:56:21.543Z,45.43
2023-02-09T07:58:49.200Z,46.35
2023-02-09T08:01:17.515Z,46.03
2023-02-09T08:03:47.653Z,45.72
2023-02-09T08:06:20.929Z,46.58
2023-02-09T08:08:50.499Z,44.50
2023-02-09T08:11:20.916Z,45.70
2023-02-09T08:13:50.887Z,46.76
2023-02-09T08:16:21.242Z,45.10
2023-02-09T08:19:15.434Z,46.76
2023-02-09T08:21:45.443Z,46.99
2023-02-09T08:24:13.554Z,46.22
2023-02-09T08:26:41.226Z,47.46
2023-02-09T08:29:09.576Z,47.75
2023-02-09T08:31:37.390Z,47.03
2023-02-09T08:34:05.118Z,47.26
2023-02-09T08:36:34.344Z,47.68
2023-02-09T08:39:03.193Z,48.13
2023-02-09T08:41:30.713Z,46.49
2023-02-09T08:43:58.237Z,45.17
2023-02-09T08:46:26.346Z,44.53
2023-02-09T08:48:54.086Z,44.42
2023-02-09T08:51:21.788Z,45.18
2023-02-09T08:53:52.802Z,44.99
2023-02-09T08:56:21.888Z,47.12
2023-02-09T08:58:50.158Z,45.85
2023-02-09T09:01:17.678Z,43.79
2023-02-09T09:03:45.477Z,45.39
2023-02-09T09:06:13.587Z,44.67
2023-02-09T09:08:41.388Z,42.66
2023-02-09T09:11:12.938Z,40.63
2023-02-09T09:13:41.344Z,41.31
2023-02-09T09:16:14.800Z,41.97
2023-02-09T09:18:44.350Z,41.07
2023-02-09T09:21:13.258Z,39.84
2023-02-09T09:23:40.657Z,40.39
2023-02-09T09:26:09.291Z,38.62
2023-02-09T09:28:36.828Z,41.97
2023-02-09T09:31:13.040Z,41.42
2023-02-09T09:33:41.808Z,39.56
2023-02-09T09:36:10.796Z,40.20
2023-02-09T09:38:39.406Z,39.24
2023-02-09T09:41:21.466Z,40.60
2023-02-09T09:43:49.600Z,39.26
2023-02-09T09:46:20.440Z,40.50
2023-02-09T09:48:50.711Z,39.78
2023-02-09T09:51:42.490Z,40.39
2023-02-09T09:54:22.139Z,39.09
2023-02-09T09:56:51.205Z,38.07
2023-02-09T09:59:35.111Z,38.20
2023-02-09T10:02:18.273Z,37.34
2023-02-09T10:04:47.408Z,37.27
2023-02-09T10:07:20.090Z,39.59
2023-02-09T10:09:52.910Z,38.19
2023-02-09T10:12:34.308Z,42.00
2023-02-09T10:15:35.041Z,40.01
2023-02-09T10:18:02.915Z,36.86
2023-02-09T10:21:07.197Z,36.00
2023-02-09T10:23:42.303Z,36.87
2023-02-09T10:26:09.928Z,36.03
2023-02-09T10:28:46.563Z,35.92
2023-02-09T10:31:32.478Z,36.26
2023-02-09T10:34:10.711Z,35.14
2023-02-09T10:36:46.186Z,34.70
2023-02-09T10:39:21.301Z,35.12
2023-02-09T10:41:54.788Z,33.87
2023-02-09T10:44:34.590Z,34.58
2023-02-09T10:47:27.208Z,32.55
2023-02-09T10:50:01.013Z,34.19
2023-02-09T10:52:37.135Z,34.25
2023-02-09T10:55:20.995Z,33.93
2023-02-09T10:57:48.916Z,33.68
2023-02-09T11:00:16.212Z,34.14
2023-02-09T11:02:51.801Z,33.10
2023-02-09T11:05:22.327Z,36.34
2023-02-09T11:08:13.961Z,35.61
2023-02-09T11:10:43.430Z,33.32
2023-02-09T11:13:18.170Z,36.12
2023-02-09T11:15:58.641Z,32.62
2023-02-09T11:18:29.409Z,30.77
2023-02-09T11:21:30.691Z,30.71
2023-02-09T11:24:06.941Z,30.29
2023-02-09T11:26:51.503Z,30.08
2023-02-09T11:29:27.532Z,28.92
2023-02-09T11:32:24.505Z,31.98
2023-02-09T11:35:11.096Z,31.17
2023-02-09T11:37:50.924Z,34.72
2023-02-09T11:40:21.222Z,37.09
2023-02-09T11:42:51.506Z,35.41
2023-02-09T11:45:24.875Z,35.98
2023-02-09T11:47:55.284Z,34.10
2023-02-09T11:50:42.297Z,33.41
2023-02-09T11:53:28.879Z,31.47
2023-02-09T11:55:56.997Z,31.41
2023-02-09T11:58:24.416Z,30.22
2023-02-09T12:01:27.174Z,30.90
2023-02-09T12:04:21.433Z,27.59
2023-02-09T12:06:54.964Z,29.02
2023-02-09T12:09:57.013Z,30.25
2023-02-09T12:12:44.729Z,31.01
2023-02-09T12:15:23.090Z,29.87
2023-02-09T12:18:04.330Z,29.18
2023-02-09T12:20:38.066Z,27.88
2023-02-09T12:23:11.327Z,27.53
2023-02-09T12:25:41.706Z,27.14
2023-02-09T12:28:09.354Z,27.15
2023-02-09T12:30:40.074Z,26.62
2023-02-09T12:33:20.006Z,26.24
2023-02-09T12:36:01.198Z,28.86
2023-02-09T12:38:41.001Z,28.48
2023-02-09T12:41:09.775Z,30.21
2023-02-09T12:43:37.536Z,28.82
2023-02-09T12:46:13.908Z,28.28
2023-02-09T12:48:54.009Z,27.62
2023-02-09T12:51:42.673Z,27.87
2023-02-09T12:54:29.701Z,30.04
2023-02-09T12:56:57.312Z,29.43
2023-02-09T12:59:25.029Z,27.66
2023-02-09T13:02:07.751Z,27.39
2023-02-09T13:04:36.168Z,26.89
2023-02-09T13:07:03.321Z,28.30
2023-02-09T13:09:31.877Z,27.54
2023-02-09T13:12:19.534Z,26.81
2023-02-09T13:14:47.546Z,27.81
2023-02-09T13:17:27.186Z,27.58
2023-02-09T13:20:04.276Z,27.48
2023-02-09T13:22:45.589Z,29.34
2023-02-09T13:25:15.756Z,31.05
2023-02-09T13:27:47.170Z,30.41
2023-02-09T13:30:34.715Z,28.28
2023-02-09T13:33:08.669Z,32.76
2023-02-09T13:35:41.862Z,34.77
2023-02-09T13:38:15.520Z,31.52
2023-02-09T13:40:47.141Z,32.61
2023-02-09T13:43:34.719Z,30.22
2023-02-09T13:46:02.189Z,28.42
2023-02-09T13:48:37.566Z,27.82
2023-02-09T13:51:13.469Z,27.56
2023-02-09T13:53:41.094Z,27.40
2023-02-09T13:56:11.435Z,27.71
2023-02-09T13:58:38.717Z,26.73
2023-02-09T14:01:11.748Z,26.49
2023-02-09T14:03:57.354Z,27.98
2023-02-09T14:06:44.627Z,28.75
2023-02-09T14:09:14.027Z,28.48
2023-02-09T14:11:45.599Z,27.26
2023-02-09T14:14:15.314Z,27.43
2023-02-09T14:16:53.006Z,26.97
2023-02-09T14:19:26.079Z,27.64
2023-02-09T14:21:53.551Z,28.11
2023-02-09T14:24:27.354Z,27.76
2023-02-09T14:27:05.512Z,27.60
2023-02-09T14:29:34.092Z,26.97
2023-02-09T14:32:31.900Z,28.45
2023-02-09T14:35:02.593Z,27.81
2023-02-09T14:37:30.309Z,27.21
2023-02-09T14:40:01.054Z,27.25
2023-02-09T14:42:28.759Z,27.67
2023-02-09T14:44:57.458Z,26.98
2023-02-09T14:47:28.846Z,28.80
2023-02-09T14:49:56.925Z,28.71
2023-02-09T14:52:28.731Z,28.17
2023-02-09T14:54:56.711Z,27.84
2023-02-09T14:57:25.256Z,29.35
2023-02-09T14:59:52.438Z,30.58
2023-02-09T15:02:21.199Z,33.13
2023-02-09T15:04:48.461Z,34.01
2023-02-09T15:07:17.696Z,32.88
2023-02-09T15:09:45.235Z,34.64
2023-02-09T15:12:21.080Z,33.46
2023-02-09T15:14:48.634Z,32.55
2023-02-09T15:17:20.287Z,34.66
2023-02-09T15:19:47.590Z,36.59
2023-02-09T15:22:16.203Z,34.66
2023-02-09T15:24:44.091Z,31.67
2023-02-09T15:27:15.606Z,32.62
2023-02-09T15:29:43.400Z,32.38
2023-02-09T15:32:15.110Z,31.76
2023-02-09T15:34:42.723Z,30.84
2023-02-09T15:37:18.562Z,30.87
2023-02-09T15:39:46.120Z,30.19
2023-02-09T15:42:35.852Z,30.08
2023-02-09T15:45:31.915Z,30.00
2023-02-09T15:47:59.601Z,29.95
2023-02-09T15:50:28.525Z,30.75
2023-02-09T15:52:57.870Z,30.96
2023-02-09T15:55:25.313Z,32.17
2023-02-09T15:57:53.793Z,31.79
2023-02-09T16:00:22.129Z,33.05
2023-02-09T16:02:50.012Z,33.12
2023-02-09T16:05:17.743Z,31.91
2023-02-09T16:07:45.124Z,34.88
2023-02-09T16:10:13.721Z,32.82
2023-02-09T16:12:41.084Z,33.94
2023-02-09T16:15:14.311Z,33.36
2023-02-09T16:17:42.179Z,35.04
2023-02-09T16:20:09.599Z,36.73
2023-02-09T16:22:42.813Z,39.83
2023-02-09T16:25:23.880Z,40.35
2023-02-09T16:27:53.211Z,41.25
2023-02-09T16:30:22.696Z,44.29
2023-02-09T16:32:50.469Z,46.22
2023-02-09T16:35:18.158Z,47.34
2023-02-09T16:37:47.661Z,47.36
2023-02-09T16:40:21.155Z,48.89
2023-02-09T16:42:48.769Z,49.15
2023-02-09T16:45:17.303Z,47.95
2023-02-09T16:47:50.132Z,47.62
2023-02-09T16:50:35.611Z,48.39
2023-02-09T16:53:04.683Z,48.88
2023-02-09T16:55:35.944Z,49.30
2023-02-09T16:58:04.522Z,50.42
2023-02-09T17:00:33.283Z,48.81
2023-02-09T17:03:20.824Z,46.87
2023-02-09T17:05:53.204Z,46.96
2023-02-09T17:08:22.498Z,48.38
2023-02-09T17:10:52.211Z,48.55
2023-02-09T17:13:22.651Z,48.85
2023-02-09T17:15:52.512Z,46.97
2023-02-09T17:18:22.721Z,47.88
2023-02-09T17:20:58.959Z,47.68
2023-02-09T17:23:26.805Z,47.75
2023-02-09T17:25:56.088Z,46.82
2023-02-09T17:28:25.442Z,45.27
2023-02-09T17:30:54.675Z,42.04
2023-02-09T17:33:24.332Z,40.47
2023-02-09T17:36:23.869Z,38.41
2023-02-09T17:38:41.657Z,39.53
2023-02-09T17:41:37.378Z,44.27
2023-02-09T17:44:22.432Z,43.78
2023-02-09T17:46:54.740Z,40.42
2023-02-09T17:49:23.378Z,39.81
2023-02-09T17:51:52.414Z,41.22
2023-02-09T17:54:22.310Z,44.15
2023-02-09T17:56:51.357Z,46.32
2023-02-09T17:59:20.453Z,46.44
2023-02-09T18:01:55.543Z,46.09
2023-02-09T18:04:29.268Z,45.37
2023-02-09T18:06:58.731Z,45.80
2023-02-09T18:09:26.743Z,47.83
2023-02-09T18:11:56.266Z,46.80
2023-02-09T18:14:26.728Z,47.48
2023-02-09T18:16:55.933Z,46.60
2023-02-09T18:19:24.829Z,46.67
2023-02-09T18:21:58.284Z,46.87
2023-02-09T18:24:27.712Z,47.56
2023-02-09T18:26:55.778Z,47.92
2023-02-09T18:29:27.418Z,46.72
2023-02-09T18:31:56.487Z,47.01
2023-02-09T18:34:25.972Z,47.51
2023-02-09T18:36:54.283Z,51.99
2023-02-09T18:39:23.261Z,53.29
2023-02-09T18:41:58.918Z,52.92
2023-02-09T18:44:32.437Z,52.64
2023-02-09T18:47:02.594Z,51.78
2023-02-09T18:49:31.351Z,51.96
2023-02-09T18:51:59.629Z,52.41
2023-02-09T18:54:29.366Z,53.69
2023-02-09T18:56:57.832Z,56.53
2023-02-09T18:59:30.165Z,56.60
2023-02-09T19:02:02.332Z,56.27
2023-02-09T19:04:30.291Z,56.00
2023-02-09T19:06:58.563Z,55.86
2023-02-09T19:09:26.876Z,56.47
2023-02-09T19:11:55.492Z,56.35
2023-02-09T19:14:41.071Z,56.17
2023-02-09T19:17:14.714Z,52.60
2023-02-09T19:19:43.088Z,52.06
2023-02-09T19:22:14.081Z,51.66
2023-02-09T19:24:43.561Z,51.73
2023-02-09T19:27:12.468Z,52.39
2023-02-09T19:29:42.021Z,52.33
2023-02-09T19:32:10.447Z,53.55
2023-02-09T19:34:40.412Z,55.42
2023-02-09T19:37:08.989Z,57.08
2023-02-09T19:39:39.315Z,56.85
2023-02-09T19:42:08.876Z,57.93
2023-02-09T19:44:38.507Z,54.38
2023-02-09T19:47:07.071Z,55.56
2023-02-09T19:49:35.615Z,54.91
2023-02-09T19:52:04.825Z,54.38
2023-02-09T19:54:33.237Z,52.44
2023-02-09T19:57:04.798Z,51.89
2023-02-09T19:59:34.953Z,52.58
2023-02-09T20:02:03.319Z,52.62
2023-02-09T20:04:33.779Z,54.00
2023-02-09T20:07:04.125Z,54.22
2023-02-09T20:09:32.700Z,54.82
2023-02-09T20:12:00.648Z,54.93
2023-02-09T20:14:31.489Z,54.45
2023-02-09T20:17:01.820Z,55.18
2023-02-09T20:19:31.431Z,57.02
2023-02-09T20:22:01.068Z,58.53
2023-02-09T20:24:32.357Z,57.05
2023-02-09T20:27:01.052Z,56.93
2023-02-09T20:29:35.970Z,54.14
2023-02-09T20:32:05.628Z,52.39
2023-02-09T20:34:35.146Z,54.98
2023-02-09T20:37:03.556Z,54.88
2023-02-09T20:39:31.720Z,55.30
2023-02-09T20:42:18.985Z,54.03
2023-02-09T20:45:07.874Z,54.94
2023-02-09T20:47:36.693Z,55.27
2023-02-09T20:50:08.076Z,55.14
2023-02-09T20:52:39.832Z,56.14
2023-02-09T20:55:08.700Z,55.25
2023-02-09T20:57:37.843Z,50.44
2023-02-09T21:00:09.940Z,49.40
2023-02-09T21:02:38.749Z,54.10
2023-02-09T21:05:09.216Z,54.52
2023-02-09T21:07:37.790Z,46.39
2023-02-09T21:10:08.627Z,45.48
2023-02-09T21:12:36.533Z,53.51
2023-02-09T21:15:04.433Z,57.40
2023-02-09T21:17:35.977Z,50.58
2023-02-09T21:20:05.986Z,56.63
2023-02-09T21:22:34.337Z,56.67
2023-02-09T21:25:02.558Z,58.96
2023-02-09T21:27:29.890Z,61.47
2023-02-09T21:29:59.330Z,63.49
2023-02-09T21:32:26.558Z,64.88
2023-02-09T21:34:54.960Z,64.73
2023-02-09T21:37:23.251Z,64.38
2023-02-09T21:39:51.221Z,64.98
2023-02-09T21:42:28.712Z,63.29
2023-02-09T21:44:58.560Z,61.43
2023-02-09T21:47:30.441Z,58.85
2023-02-09T21:49:58.537Z,56.39
2023-02-09T21:52:26.310Z,56.96
2023-02-09T21:54:54.023Z,56.05
2023-02-09T21:57:21.566Z,56.99
2023-02-09T21:59:48.758Z,57.36
2023-02-09T22:02:17.034Z,58.81
2023-02-09T22:04:44.956Z,57.38
2023-02-09T22:07:12.604Z,56.36
2023-02-09T22:09:39.951Z,54.71
2023-02-09T22:12:07.615Z,55.12
2023-02-09T22:14:34.778Z,57.79
2023-02-09T22:17:01.999Z,59.85
2023-02-09T22:19:29.544Z,56.96
2023-02-09T22:21:58.076Z,51.23
2023-02-09T22:24:25.294Z,53.41
2023-02-09T22:26:52.745Z,57.99
2023-02-09T22:29:19.922Z,55.81
2023-02-09T22:31:47.145Z,56.86
2023-02-09T22:34:14.628Z,57.16
2023-02-09T22:36:41.785Z,57.12
2023-02-09T22:39:09.049Z,59.67
2023-02-09T22:41:36.797Z,59.10
2023-02-09T22:44:05.406Z,58.41
2023-02-09T22:46:34.172Z,60.29
2023-02-09T22:49:08.834Z,59.88
2023-02-09T22:51:36.199Z,59.79
2023-02-09T22:54:03.980Z,60.76
2023-02-09T22:56:31.313Z,57.81
2023-02-09T22:58:59.354Z,58.15
2023-02-09T23:01:27.413Z,57.12
2023-02-09T23:03:54.635Z,58.00
2023-02-09T23:06:24.015Z,57.42
2023-02-09T23:08:52.081Z,58.45
2023-02-09T23:11:19.226Z,57.70
2023-02-09T23:13:47.120Z,56.90
2023-02-09T23:16:18.699Z,57.57
2023-02-09T23:18:47.287Z,57.73
2023-02-09T23:21:14.824Z,56.76
2023-02-09T23:23:41.971Z,60.46
2023-02-09T23:26:09.124Z,58.40
2023-02-09T23:28:36.545Z,56.44
2023-02-09T23:31:07.135Z,56.87
2023-02-09T23:33:34.852Z,58.46
2023-02-09T23:36:03.578Z,57.44
2023-02-09T23:38:30.795Z,57.64
2023-02-09T23:40:57.944Z,56.93
2023-02-09T23:43:26.122Z,58.63
2023-02-09T23:45:53.613Z,58.38
2023-02-09T23:48:20.947Z,56.67
2023-02-09T23:50:48.413Z,57.44
2023-02-09T23:53:15.564Z,61.54
2023-02-09T23:55:50.034Z,61.94
2023-02-09T23:58:17.477Z,58.66
